sensor_id;sensor_type;location;lat;lon;timestamp;P1;durP1;ratioP1;P2;durP2;ratioP2
3050;SDS011;1535;51.098;6.414;2023-05-02T00:00:26;7.10;;;6.90;;
3050;SDS011;1535;51.098;6.414;2023-05-02T00:02:54;6.90;;;6.70;;
3050;SDS011;1535;51.098;6.414;2023-05-02T00:05:21;6.73;;;6.50;;
3050;SDS011;1535;51.098;6.414;2023-05-02T00:07:49;6.60;;;6.40;;
3050;SDS011;1535;51.098;6.414;2023-05-02T00:10:16;7.20;;;7.00;;
3050;SDS011;1535;51.098;6.414;2023-05-02T00:12:43;7.80;;;7.50;;
3050;SDS011;1535;51.098;6.414;2023-05-02T00:15:10;6.10;;;5.90;;
3050;SDS011;1535;51.098;6.414;2023-05-02T00:17:41;6.20;;;6.00;;
3050;SDS011;1535;51.098;6.414;2023-05-02T00:20:09;6.30;;;6.10;;
3050;SDS011;1535;51.098;6.414;2023-05-02T00:22:37;6.87;;;6.60;;
3050;SDS011;1535;51.098;6.414;2023-05-02T00:25:04;6.37;;;6.17;;
3050;SDS011;1535;51.098;6.414;2023-05-02T00:27:32;7.93;;;7.20;;
3050;SDS011;1535;51.098;6.414;2023-05-02T00:30:00;6.23;;;6.03;;
3050;SDS011;1535;51.098;6.414;2023-05-02T00:32:26;7.57;;;7.17;;
3050;SDS011;1535;51.098;6.414;2023-05-02T00:34:55;6.40;;;6.10;;
3050;SDS011;1535;51.098;6.414;2023-05-02T00:37:24;7.77;;;7.10;;
3050;SDS011;1535;51.098;6.414;2023-05-02T00:39:53;7.97;;;6.80;;
3050;SDS011;1535;51.098;6.414;2023-05-02T00:42:19;8.50;;;7.70;;
3050;SDS011;1535;51.098;6.414;2023-05-02T00:44:46;12.10;;;5.97;;
3050;SDS011;1535;51.098;6.414;2023-05-02T00:47:14;12.27;;;11.10;;
3050;SDS011;1535;51.098;6.414;2023-05-02T00:49:41;10.37;;;8.27;;
3050;SDS011;1535;51.098;6.414;2023-05-02T00:52:10;9.93;;;9.13;;
3050;SDS011;1535;51.098;6.414;2023-05-02T00:54:38;15.30;;;9.27;;
3050;SDS011;1535;51.098;6.414;2023-05-02T00:57:05;17.80;;;11.60;;
3050;SDS011;1535;51.098;6.414;2023-05-02T00:59:32;9.07;;;8.13;;
3050;SDS011;1535;51.098;6.414;2023-05-02T01:02:04;9.73;;;8.80;;
3050;SDS011;1535;51.098;6.414;2023-05-02T01:04:42;15.67;;;10.50;;
3050;SDS011;1535;51.098;6.414;2023-05-02T01:07:24;8.47;;;7.57;;
3050;SDS011;1535;51.098;6.414;2023-05-02T01:10:05;13.70;;;10.67;;
3050;SDS011;1535;51.098;6.414;2023-05-02T01:12:40;19.97;;;11.00;;
3050;SDS011;1535;51.098;6.414;2023-05-02T01:15:15;18.00;;;12.53;;
3050;SDS011;1535;51.098;6.414;2023-05-02T01:17:45;18.53;;;12.33;;
3050;SDS011;1535;51.098;6.414;2023-05-02T01:20:14;12.13;;;10.80;;
3050;SDS011;1535;51.098;6.414;2023-05-02T01:22:47;6.20;;;5.73;;
3050;SDS011;1535;51.098;6.414;2023-05-02T01:25:18;30.60;;;16.63;;
3050;SDS011;1535;51.098;6.414;2023-05-02T01:27:54;19.43;;;10.77;;
3050;SDS011;1535;51.098;6.414;2023-05-02T01:30:28;9.93;;;9.13;;
3050;SDS011;1535;51.098;6.414;2023-05-02T01:32:59;11.00;;;4.93;;
3050;SDS011;1535;51.098;6.414;2023-05-02T01:35:28;8.07;;;7.37;;
3050;SDS011;1535;51.098;6.414;2023-05-02T01:37:57;9.13;;;7.33;;
3050;SDS011;1535;51.098;6.414;2023-05-02T01:40:25;12.20;;;10.67;;
3050;SDS011;1535;51.098;6.414;2023-05-02T01:42:53;5.03;;;4.83;;
3050;SDS011;1535;51.098;6.414;2023-05-02T01:45:23;10.40;;;9.43;;
3050;SDS011;1535;51.098;6.414;2023-05-02T01:47:53;6.53;;;5.77;;
3050;SDS011;1535;51.098;6.414;2023-05-02T01:50:23;6.13;;;5.70;;
3050;SDS011;1535;51.098;6.414;2023-05-02T01:52:51;9.07;;;8.07;;
3050;SDS011;1535;51.098;6.414;2023-05-02T01:55:20;8.13;;;6.23;;
3050;SDS011;1535;51.098;6.414;2023-05-02T01:57:49;3.30;;;3.20;;
3050;SDS011;1535;51.098;6.414;2023-05-02T02:00:19;3.27;;;3.17;;
3050;SDS011;1535;51.098;6.414;2023-05-02T02:02:47;7.60;;;6.83;;
3050;SDS011;1535;51.098;6.414;2023-05-02T02:05:19;3.90;;;3.80;;
3050;SDS011;1535;51.098;6.414;2023-05-02T02:07:48;3.70;;;3.60;;
3050;SDS011;1535;51.098;6.414;2023-05-02T02:10:16;6.30;;;5.80;;
3050;SDS011;1535;51.098;6.414;2023-05-02T02:12:44;3.70;;;3.60;;
3050;SDS011;1535;51.098;6.414;2023-05-02T02:15:17;3.90;;;3.80;;
3050;SDS011;1535;51.098;6.414;2023-05-02T02:17:47;4.30;;;4.10;;
3050;SDS011;1535;51.098;6.414;2023-05-02T02:20:19;3.43;;;3.33;;
3050;SDS011;1535;51.098;6.414;2023-05-02T02:22:47;5.73;;;5.43;;
3050;SDS011;1535;51.098;6.414;2023-05-02T02:25:15;5.33;;;5.00;;
3050;SDS011;1535;51.098;6.414;2023-05-02T02:27:44;4.60;;;4.30;;
3050;SDS011;1535;51.098;6.414;2023-05-02T02:30:13;7.30;;;6.47;;
3050;SDS011;1535;51.098;6.414;2023-05-02T02:32:41;3.90;;;3.80;;
3050;SDS011;1535;51.098;6.414;2023-05-02T02:35:09;6.27;;;5.77;;
3050;SDS011;1535;51.098;6.414;2023-05-02T02:37:38;7.23;;;6.50;;
3050;SDS011;1535;51.098;6.414;2023-05-02T02:40:11;6.80;;;6.40;;
3050;SDS011;1535;51.098;6.414;2023-05-02T02:42:46;7.23;;;6.80;;
3050;SDS011;1535;51.098;6.414;2023-05-02T02:45:22;4.43;;;4.23;;
3050;SDS011;1535;51.098;6.414;2023-05-02T02:48:03;4.80;;;4.50;;
3050;SDS011;1535;51.098;6.414;2023-05-02T02:50:37;6.20;;;6.00;;
3050;SDS011;1535;51.098;6.414;2023-05-02T02:53:17;3.87;;;3.77;;
3050;SDS011;1535;51.098;6.414;2023-05-02T02:55:52;7.90;;;5.07;;
3050;SDS011;1535;51.098;6.414;2023-05-02T02:58:25;5.27;;;4.97;;
3050;SDS011;1535;51.098;6.414;2023-05-02T03:01:02;12.53;;;6.73;;
3050;SDS011;1535;51.098;6.414;2023-05-02T03:03:30;5.27;;;4.97;;
3050;SDS011;1535;51.098;6.414;2023-05-02T03:05:59;6.17;;;4.80;;
3050;SDS011;1535;51.098;6.414;2023-05-02T03:08:28;5.30;;;4.90;;
3050;SDS011;1535;51.098;6.414;2023-05-02T03:11:04;13.20;;;9.77;;
3050;SDS011;1535;51.098;6.414;2023-05-02T03:13:32;6.80;;;6.20;;
3050;SDS011;1535;51.098;6.414;2023-05-02T03:16:05;13.57;;;6.00;;
3050;SDS011;1535;51.098;6.414;2023-05-02T03:18:48;4.90;;;4.53;;
3050;SDS011;1535;51.098;6.414;2023-05-02T03:21:16;6.13;;;5.30;;
3050;SDS011;1535;51.098;6.414;2023-05-02T03:23:46;5.40;;;5.00;;
3050;SDS011;1535;51.098;6.414;2023-05-02T03:26:12;4.50;;;4.30;;
3050;SDS011;1535;51.098;6.414;2023-05-02T03:28:40;2.93;;;2.83;;
3050;SDS011;1535;51.098;6.414;2023-05-02T03:31:10;5.57;;;5.17;;
3050;SDS011;1535;51.098;6.414;2023-05-02T03:33:37;6.90;;;6.43;;
3050;SDS011;1535;51.098;6.414;2023-05-02T03:36:04;4.17;;;3.97;;
3050;SDS011;1535;51.098;6.414;2023-05-02T03:38:32;6.00;;;5.40;;
3050;SDS011;1535;51.098;6.414;2023-05-02T03:41:00;7.27;;;6.57;;
3050;SDS011;1535;51.098;6.414;2023-05-02T03:43:28;14.70;;;8.10;;
3050;SDS011;1535;51.098;6.414;2023-05-02T03:45:55;6.40;;;5.67;;
3050;SDS011;1535;51.098;6.414;2023-05-02T03:48:24;3.30;;;3.10;;
3050;SDS011;1535;51.098;6.414;2023-05-02T03:50:51;6.17;;;5.73;;
3050;SDS011;1535;51.098;6.414;2023-05-02T03:53:19;7.73;;;5.97;;
3050;SDS011;1535;51.098;6.414;2023-05-02T03:55:46;4.33;;;4.03;;
3050;SDS011;1535;51.098;6.414;2023-05-02T03:58:14;3.23;;;3.03;;
3050;SDS011;1535;51.098;6.414;2023-05-02T04:00:41;2.73;;;2.63;;
3050;SDS011;1535;51.098;6.414;2023-05-02T04:03:08;9.93;;;6.33;;
3050;SDS011;1535;51.098;6.414;2023-05-02T04:05:36;6.97;;;6.37;;
3050;SDS011;1535;51.098;6.414;2023-05-02T04:08:03;5.10;;;4.80;;
3050;SDS011;1535;51.098;6.414;2023-05-02T04:10:32;3.20;;;3.10;;
3050;SDS011;1535;51.098;6.414;2023-05-02T04:12:58;6.00;;;5.30;;
3050;SDS011;1535;51.098;6.414;2023-05-02T04:15:28;5.00;;;4.13;;
3050;SDS011;1535;51.098;6.414;2023-05-02T04:17:56;4.80;;;4.43;;
3050;SDS011;1535;51.098;6.414;2023-05-02T04:20:24;3.57;;;3.37;;
3050;SDS011;1535;51.098;6.414;2023-05-02T04:22:51;8.70;;;7.90;;
3050;SDS011;1535;51.098;6.414;2023-05-02T04:25:19;4.87;;;4.47;;
3050;SDS011;1535;51.098;6.414;2023-05-02T04:27:47;11.63;;;9.27;;
3050;SDS011;1535;51.098;6.414;2023-05-02T04:30:14;9.67;;;8.87;;
3050;SDS011;1535;51.098;6.414;2023-05-02T04:32:42;7.70;;;6.67;;
3050;SDS011;1535;51.098;6.414;2023-05-02T04:35:09;14.03;;;8.53;;
3050;SDS011;1535;51.098;6.414;2023-05-02T04:37:37;25.33;;;10.53;;
3050;SDS011;1535;51.098;6.414;2023-05-02T04:40:04;4.87;;;4.60;;
3050;SDS011;1535;51.098;6.414;2023-05-02T04:42:32;9.00;;;6.00;;
3050;SDS011;1535;51.098;6.414;2023-05-02T04:44:58;5.57;;;5.10;;
3050;SDS011;1535;51.098;6.414;2023-05-02T04:47:25;11.30;;;7.37;;
3050;SDS011;1535;51.098;6.414;2023-05-02T04:49:55;13.00;;;8.00;;
3050;SDS011;1535;51.098;6.414;2023-05-02T04:52:22;7.90;;;6.90;;
3050;SDS011;1535;51.098;6.414;2023-05-02T04:54:50;12.23;;;8.30;;
3050;SDS011;1535;51.098;6.414;2023-05-02T04:57:17;8.70;;;7.10;;
3050;SDS011;1535;51.098;6.414;2023-05-02T04:59:45;7.20;;;6.57;;
3050;SDS011;1535;51.098;6.414;2023-05-02T05:02:11;5.10;;;4.70;;
3050;SDS011;1535;51.098;6.414;2023-05-02T05:04:38;3.33;;;3.23;;
3050;SDS011;1535;51.098;6.414;2023-05-02T05:07:07;13.57;;;5.77;;
3050;SDS011;1535;51.098;6.414;2023-05-02T05:09:34;3.60;;;3.50;;
3050;SDS011;1535;51.098;6.414;2023-05-02T05:12:01;5.23;;;4.97;;
3050;SDS011;1535;51.098;6.414;2023-05-02T05:14:28;6.00;;;5.60;;
3050;SDS011;1535;51.098;6.414;2023-05-02T05:16:56;5.80;;;4.20;;
3050;SDS011;1535;51.098;6.414;2023-05-02T05:19:23;8.23;;;5.93;;
3050;SDS011;1535;51.098;6.414;2023-05-02T05:21:52;20.90;;;8.80;;
3050;SDS011;1535;51.098;6.414;2023-05-02T05:24:20;8.93;;;6.60;;
3050;SDS011;1535;51.098;6.414;2023-05-02T05:26:47;4.40;;;4.20;;
3050;SDS011;1535;51.098;6.414;2023-05-02T05:29:14;7.30;;;6.70;;
3050;SDS011;1535;51.098;6.414;2023-05-02T05:31:43;6.37;;;5.90;;
3050;SDS011;1535;51.098;6.414;2023-05-02T05:34:10;5.03;;;4.73;;
3050;SDS011;1535;51.098;6.414;2023-05-02T05:36:38;4.47;;;4.20;;
3050;SDS011;1535;51.098;6.414;2023-05-02T05:39:05;11.07;;;7.50;;
3050;SDS011;1535;51.098;6.414;2023-05-02T05:41:34;8.47;;;6.20;;
3050;SDS011;1535;51.098;6.414;2023-05-02T05:44:02;5.00;;;4.60;;
3050;SDS011;1535;51.098;6.414;2023-05-02T05:46:29;9.80;;;7.67;;
3050;SDS011;1535;51.098;6.414;2023-05-02T05:48:56;10.97;;;6.90;;
3050;SDS011;1535;51.098;6.414;2023-05-02T05:51:24;3.57;;;3.27;;
3050;SDS011;1535;51.098;6.414;2023-05-02T05:53:52;4.67;;;4.27;;
3050;SDS011;1535;51.098;6.414;2023-05-02T05:56:19;12.80;;;8.13;;
3050;SDS011;1535;51.098;6.414;2023-05-02T05:58:49;9.33;;;6.13;;
3050;SDS011;1535;51.098;6.414;2023-05-02T06:01:16;11.30;;;7.70;;
3050;SDS011;1535;51.098;6.414;2023-05-02T06:03:43;9.03;;;5.80;;
3050;SDS011;1535;51.098;6.414;2023-05-02T06:06:10;8.53;;;6.57;;
3050;SDS011;1535;51.098;6.414;2023-05-02T06:08:37;8.40;;;6.57;;
3050;SDS011;1535;51.098;6.414;2023-05-02T06:11:07;4.30;;;4.00;;
3050;SDS011;1535;51.098;6.414;2023-05-02T06:13:36;5.17;;;4.70;;
3050;SDS011;1535;51.098;6.414;2023-05-02T06:16:04;5.47;;;5.00;;
3050;SDS011;1535;51.098;6.414;2023-05-02T06:18:31;5.63;;;4.27;;
3050;SDS011;1535;51.098;6.414;2023-05-02T06:21:02;3.57;;;3.37;;
3050;SDS011;1535;51.098;6.414;2023-05-02T06:23:29;13.27;;;4.80;;
3050;SDS011;1535;51.098;6.414;2023-05-02T06:25:57;7.13;;;6.43;;
3050;SDS011;1535;51.098;6.414;2023-05-02T06:28:25;3.87;;;3.67;;
3050;SDS011;1535;51.098;6.414;2023-05-02T06:30:55;7.80;;;5.43;;
3050;SDS011;1535;51.098;6.414;2023-05-02T06:33:25;5.83;;;5.43;;
3050;SDS011;1535;51.098;6.414;2023-05-02T06:35:52;5.50;;;5.00;;
3050;SDS011;1535;51.098;6.414;2023-05-02T06:38:19;5.57;;;5.17;;
3050;SDS011;1535;51.098;6.414;2023-05-02T06:40:46;5.40;;;5.10;;
3050;SDS011;1535;51.098;6.414;2023-05-02T06:43:14;6.00;;;5.60;;
3050;SDS011;1535;51.098;6.414;2023-05-02T06:45:44;6.13;;;5.53;;
3050;SDS011;1535;51.098;6.414;2023-05-02T06:48:11;4.90;;;4.70;;
3050;SDS011;1535;51.098;6.414;2023-05-02T06:50:41;6.93;;;6.43;;
3050;SDS011;1535;51.098;6.414;2023-05-02T06:53:07;7.00;;;6.40;;
3050;SDS011;1535;51.098;6.414;2023-05-02T06:55:34;8.20;;;7.70;;
3050;SDS011;1535;51.098;6.414;2023-05-02T06:58:01;8.17;;;7.63;;
3050;SDS011;1535;51.098;6.414;2023-05-02T07:00:28;6.60;;;6.40;;
3050;SDS011;1535;51.098;6.414;2023-05-02T07:02:55;7.67;;;7.07;;
3050;SDS011;1535;51.098;6.414;2023-05-02T07:05:23;7.00;;;6.80;;
3050;SDS011;1535;51.098;6.414;2023-05-02T07:07:52;9.30;;;8.90;;
3050;SDS011;1535;51.098;6.414;2023-05-02T07:10:19;8.60;;;8.30;;
3050;SDS011;1535;51.098;6.414;2023-05-02T07:12:46;9.43;;;9.03;;
3050;SDS011;1535;51.098;6.414;2023-05-02T07:15:13;9.83;;;9.43;;
3050;SDS011;1535;51.098;6.414;2023-05-02T07:17:41;10.30;;;9.90;;
3050;SDS011;1535;51.098;6.414;2023-05-02T07:20:09;9.90;;;9.53;;
3050;SDS011;1535;51.098;6.414;2023-05-02T07:22:37;10.93;;;10.33;;
3050;SDS011;1535;51.098;6.414;2023-05-02T07:25:07;11.80;;;11.10;;
3050;SDS011;1535;51.098;6.414;2023-05-02T07:27:35;11.70;;;11.20;;
3050;SDS011;1535;51.098;6.414;2023-05-02T07:30:02;11.70;;;11.20;;
3050;SDS011;1535;51.098;6.414;2023-05-02T07:32:29;11.77;;;11.17;;
3050;SDS011;1535;51.098;6.414;2023-05-02T07:34:57;12.87;;;11.50;;
3050;SDS011;1535;51.098;6.414;2023-05-02T07:37:23;11.80;;;11.30;;
3050;SDS011;1535;51.098;6.414;2023-05-02T07:39:50;12.10;;;11.60;;
3050;SDS011;1535;51.098;6.414;2023-05-02T07:42:19;13.80;;;12.77;;
3050;SDS011;1535;51.098;6.414;2023-05-02T07:44:46;13.00;;;12.30;;
3050;SDS011;1535;51.098;6.414;2023-05-02T07:47:13;12.57;;;12.07;;
3050;SDS011;1535;51.098;6.414;2023-05-02T07:49:41;13.13;;;12.53;;
3050;SDS011;1535;51.098;6.414;2023-05-02T07:52:08;14.53;;;13.37;;
3050;SDS011;1535;51.098;6.414;2023-05-02T07:54:36;14.27;;;13.67;;
3050;SDS011;1535;51.098;6.414;2023-05-02T07:57:03;14.20;;;13.43;;
3050;SDS011;1535;51.098;6.414;2023-05-02T07:59:35;15.47;;;14.47;;
3050;SDS011;1535;51.098;6.414;2023-05-02T08:02:04;14.23;;;13.63;;
3050;SDS011;1535;51.098;6.414;2023-05-02T08:04:31;17.00;;;15.03;;
3050;SDS011;1535;51.098;6.414;2023-05-02T08:06:59;13.77;;;13.17;;
3050;SDS011;1535;51.098;6.414;2023-05-02T08:09:27;14.40;;;13.70;;
3050;SDS011;1535;51.098;6.414;2023-05-02T08:11:53;15.27;;;14.27;;
3050;SDS011;1535;51.098;6.414;2023-05-02T08:14:21;13.80;;;13.17;;
3050;SDS011;1535;51.098;6.414;2023-05-02T08:16:50;13.43;;;12.83;;
3050;SDS011;1535;51.098;6.414;2023-05-02T08:19:17;12.80;;;12.30;;
3050;SDS011;1535;51.098;6.414;2023-05-02T08:21:44;12.83;;;12.33;;
3050;SDS011;1535;51.098;6.414;2023-05-02T08:24:11;11.93;;;11.43;;
3050;SDS011;1535;51.098;6.414;2023-05-02T08:26:39;12.37;;;11.77;;
3050;SDS011;1535;51.098;6.414;2023-05-02T08:29:06;12.80;;;12.30;;
3050;SDS011;1535;51.098;6.414;2023-05-02T08:31:35;15.13;;;14.40;;
3050;SDS011;1535;51.098;6.414;2023-05-02T08:34:04;13.97;;;13.37;;
3050;SDS011;1535;51.098;6.414;2023-05-02T08:36:30;14.20;;;13.60;;
3050;SDS011;1535;51.098;6.414;2023-05-02T08:38:57;15.30;;;14.60;;
3050;SDS011;1535;51.098;6.414;2023-05-02T08:41:26;14.43;;;13.83;;
3050;SDS011;1535;51.098;6.414;2023-05-02T08:43:54;14.57;;;13.97;;
3050;SDS011;1535;51.098;6.414;2023-05-02T08:46:22;13.80;;;13.20;;
3050;SDS011;1535;51.098;6.414;2023-05-02T08:48:50;20.97;;;15.63;;
3050;SDS011;1535;51.098;6.414;2023-05-02T08:51:18;15.13;;;14.37;;
3050;SDS011;1535;51.098;6.414;2023-05-02T08:53:48;15.30;;;14.60;;
3050;SDS011;1535;51.098;6.414;2023-05-02T08:56:17;14.53;;;13.93;;
3050;SDS011;1535;51.098;6.414;2023-05-02T08:58:44;17.00;;;15.90;;
3050;SDS011;1535;51.098;6.414;2023-05-02T09:01:12;27.43;;;16.03;;
3050;SDS011;1535;51.098;6.414;2023-05-02T09:03:41;15.70;;;15.00;;
3050;SDS011;1535;51.098;6.414;2023-05-02T09:06:09;15.83;;;15.13;;
3050;SDS011;1535;51.098;6.414;2023-05-02T09:08:39;15.10;;;14.50;;
3050;SDS011;1535;51.098;6.414;2023-05-02T09:11:08;15.27;;;14.57;;
3050;SDS011;1535;51.098;6.414;2023-05-02T09:13:38;15.73;;;14.93;;
3050;SDS011;1535;51.098;6.414;2023-05-02T09:16:06;16.07;;;15.27;;
3050;SDS011;1535;51.098;6.414;2023-05-02T09:18:35;15.40;;;14.70;;
3050;SDS011;1535;51.098;6.414;2023-05-02T09:21:04;14.80;;;14.20;;
3050;SDS011;1535;51.098;6.414;2023-05-02T09:23:37;16.90;;;16.00;;
3050;SDS011;1535;51.098;6.414;2023-05-02T09:26:10;15.70;;;15.00;;
3050;SDS011;1535;51.098;6.414;2023-05-02T09:28:39;15.27;;;14.57;;
3050;SDS011;1535;51.098;6.414;2023-05-02T09:31:09;15.37;;;14.60;;
3050;SDS011;1535;51.098;6.414;2023-05-02T09:33:37;15.17;;;14.47;;
3050;SDS011;1535;51.098;6.414;2023-05-02T09:36:04;15.80;;;14.90;;
3050;SDS011;1535;51.098;6.414;2023-05-02T09:38:32;15.00;;;14.30;;
3050;SDS011;1535;51.098;6.414;2023-05-02T09:41:01;15.77;;;14.87;;
3050;SDS011;1535;51.098;6.414;2023-05-02T09:43:29;14.50;;;13.90;;
3050;SDS011;1535;51.098;6.414;2023-05-02T09:45:57;14.23;;;13.57;;
3050;SDS011;1535;51.098;6.414;2023-05-02T09:48:25;15.27;;;14.03;;
3050;SDS011;1535;51.098;6.414;2023-05-02T09:50:53;17.00;;;15.83;;
3050;SDS011;1535;51.098;6.414;2023-05-02T09:53:21;14.33;;;13.63;;
3050;SDS011;1535;51.098;6.414;2023-05-02T09:55:55;15.13;;;14.33;;
3050;SDS011;1535;51.098;6.414;2023-05-02T09:58:28;13.80;;;13.20;;
3050;SDS011;1535;51.098;6.414;2023-05-02T10:00:57;14.20;;;13.60;;
3050;SDS011;1535;51.098;6.414;2023-05-02T10:03:25;15.80;;;14.80;;
3050;SDS011;1535;51.098;6.414;2023-05-02T10:05:53;14.83;;;14.23;;
3050;SDS011;1535;51.098;6.414;2023-05-02T10:08:21;15.47;;;14.60;;
3050;SDS011;1535;51.098;6.414;2023-05-02T10:10:51;15.07;;;14.07;;
3050;SDS011;1535;51.098;6.414;2023-05-02T10:13:21;14.57;;;13.87;;
3050;SDS011;1535;51.098;6.414;2023-05-02T10:15:53;14.47;;;13.87;;
3050;SDS011;1535;51.098;6.414;2023-05-02T10:18:28;15.33;;;14.63;;
3050;SDS011;1535;51.098;6.414;2023-05-02T10:21:04;15.20;;;14.50;;
3050;SDS011;1535;51.098;6.414;2023-05-02T10:23:34;15.70;;;14.90;;
3050;SDS011;1535;51.098;6.414;2023-05-02T10:26:01;16.13;;;15.43;;
3050;SDS011;1535;51.098;6.414;2023-05-02T10:28:30;16.10;;;15.40;;
3050;SDS011;1535;51.098;6.414;2023-05-02T10:30:57;15.73;;;15.03;;
3050;SDS011;1535;51.098;6.414;2023-05-02T10:33:26;16.60;;;15.80;;
3050;SDS011;1535;51.098;6.414;2023-05-02T10:35:56;17.30;;;16.47;;
3050;SDS011;1535;51.098;6.414;2023-05-02T10:38:23;16.70;;;15.80;;
3050;SDS011;1535;51.098;6.414;2023-05-02T10:40:52;16.43;;;15.63;;
3050;SDS011;1535;51.098;6.414;2023-05-02T10:43:25;16.93;;;15.83;;
3050;SDS011;1535;51.098;6.414;2023-05-02T10:45:57;16.50;;;15.70;;
3050;SDS011;1535;51.098;6.414;2023-05-02T10:48:24;16.70;;;15.90;;
3050;SDS011;1535;51.098;6.414;2023-05-02T10:50:52;16.73;;;15.90;;
3050;SDS011;1535;51.098;6.414;2023-05-02T10:53:21;16.60;;;15.60;;
3050;SDS011;1535;51.098;6.414;2023-05-02T10:56:08;16.13;;;15.43;;
3050;SDS011;1535;51.098;6.414;2023-05-02T10:58:37;15.70;;;15.00;;
3050;SDS011;1535;51.098;6.414;2023-05-02T11:04:07;16.53;;;15.63;;
3050;SDS011;1535;51.098;6.414;2023-05-02T11:06:37;16.57;;;15.87;;
3050;SDS011;1535;51.098;6.414;2023-05-02T11:09:43;17.27;;;15.97;;
3050;SDS011;1535;51.098;6.414;2023-05-02T11:12:09;17.63;;;16.50;;
3050;SDS011;1535;51.098;6.414;2023-05-02T11:14:43;17.40;;;16.23;;
3050;SDS011;1535;51.098;6.414;2023-05-02T11:17:17;18.27;;;17.27;;
3050;SDS011;1535;51.098;6.414;2023-05-02T11:22:50;15.20;;;14.60;;
3050;SDS011;1535;51.098;6.414;2023-05-02T11:25:29;16.67;;;15.87;;
3050;SDS011;1535;51.098;6.414;2023-05-02T11:27:57;17.00;;;16.20;;
3050;SDS011;1535;51.098;6.414;2023-05-02T11:30:40;15.53;;;14.80;;
3050;SDS011;1535;51.098;6.414;2023-05-02T11:33:15;16.17;;;15.40;;
3050;SDS011;1535;51.098;6.414;2023-05-02T11:35:44;16.67;;;15.87;;
3050;SDS011;1535;51.098;6.414;2023-05-02T11:38:13;16.97;;;16.03;;
3050;SDS011;1535;51.098;6.414;2023-05-02T11:40:53;16.20;;;15.50;;
3050;SDS011;1535;51.098;6.414;2023-05-02T11:43:22;16.63;;;15.80;;
3050;SDS011;1535;51.098;6.414;2023-05-02T11:45:50;16.27;;;15.57;;
3050;SDS011;1535;51.098;6.414;2023-05-02T11:48:19;17.10;;;16.10;;
3050;SDS011;1535;51.098;6.414;2023-05-02T11:50:47;15.90;;;15.20;;
3050;SDS011;1535;51.098;6.414;2023-05-02T11:53:16;18.13;;;17.03;;
3050;SDS011;1535;51.098;6.414;2023-05-02T11:55:46;16.40;;;15.70;;
3050;SDS011;1535;51.098;6.414;2023-05-02T11:58:17;18.30;;;17.20;;
3050;SDS011;1535;51.098;6.414;2023-05-02T12:00:45;18.17;;;17.23;;
3050;SDS011;1535;51.098;6.414;2023-05-02T12:03:22;16.47;;;15.77;;
3050;SDS011;1535;51.098;6.414;2023-05-02T12:05:53;18.47;;;17.57;;
3050;SDS011;1535;51.098;6.414;2023-05-02T12:08:21;16.73;;;15.97;;
3050;SDS011;1535;51.098;6.414;2023-05-02T12:10:50;16.83;;;15.93;;
3050;SDS011;1535;51.098;6.414;2023-05-02T12:13:21;18.37;;;17.17;;
3050;SDS011;1535;51.098;6.414;2023-05-02T12:15:51;16.30;;;15.60;;
3050;SDS011;1535;51.098;6.414;2023-05-02T12:18:19;16.63;;;15.73;;
3050;SDS011;1535;51.098;6.414;2023-05-02T12:20:49;17.17;;;16.10;;
3050;SDS011;1535;51.098;6.414;2023-05-02T12:23:16;15.63;;;14.93;;
3050;SDS011;1535;51.098;6.414;2023-05-02T12:25:45;15.97;;;15.27;;
3050;SDS011;1535;51.098;6.414;2023-05-02T12:28:15;16.20;;;15.50;;
3050;SDS011;1535;51.098;6.414;2023-05-02T12:30:46;15.97;;;15.17;;
3050;SDS011;1535;51.098;6.414;2023-05-02T12:33:13;16.80;;;16.00;;
3050;SDS011;1535;51.098;6.414;2023-05-02T12:35:41;17.07;;;15.87;;
3050;SDS011;1535;51.098;6.414;2023-05-02T12:38:11;18.53;;;17.33;;
3050;SDS011;1535;51.098;6.414;2023-05-02T12:40:45;16.10;;;15.40;;
3050;SDS011;1535;51.098;6.414;2023-05-02T12:43:17;15.67;;;14.77;;
3050;SDS011;1535;51.098;6.414;2023-05-02T12:45:47;15.50;;;14.80;;
3050;SDS011;1535;51.098;6.414;2023-05-02T12:48:17;16.60;;;15.80;;
3050;SDS011;1535;51.098;6.414;2023-05-02T12:50:45;18.00;;;16.90;;
3050;SDS011;1535;51.098;6.414;2023-05-02T12:53:12;15.40;;;14.70;;
3050;SDS011;1535;51.098;6.414;2023-05-02T12:55:39;16.70;;;15.80;;
3050;SDS011;1535;51.098;6.414;2023-05-02T12:58:07;14.83;;;14.23;;
3050;SDS011;1535;51.098;6.414;2023-05-02T13:00:36;16.30;;;15.20;;
3050;SDS011;1535;51.098;6.414;2023-05-02T13:03:06;17.30;;;16.40;;
3050;SDS011;1535;51.098;6.414;2023-05-02T13:05:34;16.20;;;15.40;;
3050;SDS011;1535;51.098;6.414;2023-05-02T13:08:01;14.80;;;14.20;;
3050;SDS011;1535;51.098;6.414;2023-05-02T13:10:28;15.23;;;14.53;;
3050;SDS011;1535;51.098;6.414;2023-05-02T13:12:55;15.87;;;15.17;;
3050;SDS011;1535;51.098;6.414;2023-05-02T13:15:22;16.90;;;16.00;;
3050;SDS011;1535;51.098;6.414;2023-05-02T13:17:49;16.27;;;15.47;;
3050;SDS011;1535;51.098;6.414;2023-05-02T13:20:18;16.43;;;15.00;;
3050;SDS011;1535;51.098;6.414;2023-05-02T13:22:45;15.40;;;14.60;;
3050;SDS011;1535;51.098;6.414;2023-05-02T13:25:12;15.60;;;14.90;;
3050;SDS011;1535;51.098;6.414;2023-05-02T13:27:39;15.90;;;15.10;;
3050;SDS011;1535;51.098;6.414;2023-05-02T13:30:06;17.17;;;15.97;;
3050;SDS011;1535;51.098;6.414;2023-05-02T13:32:34;16.47;;;15.33;;
3050;SDS011;1535;51.098;6.414;2023-05-02T13:35:01;17.20;;;16.30;;
3050;SDS011;1535;51.098;6.414;2023-05-02T13:37:30;16.33;;;15.63;;
3050;SDS011;1535;51.098;6.414;2023-05-02T13:39:57;16.87;;;15.83;;
3050;SDS011;1535;51.098;6.414;2023-05-02T13:42:24;15.40;;;14.70;;
3050;SDS011;1535;51.098;6.414;2023-05-02T13:44:51;15.47;;;14.77;;
3050;SDS011;1535;51.098;6.414;2023-05-02T13:47:18;16.60;;;15.60;;
3050;SDS011;1535;51.098;6.414;2023-05-02T13:49:46;15.20;;;14.50;;
3050;SDS011;1535;51.098;6.414;2023-05-02T13:52:13;15.73;;;14.77;;
3050;SDS011;1535;51.098;6.414;2023-05-02T13:54:41;16.03;;;15.23;;
3050;SDS011;1535;51.098;6.414;2023-05-02T13:57:08;15.30;;;14.70;;
3050;SDS011;1535;51.098;6.414;2023-05-02T13:59:36;14.57;;;13.97;;
3050;SDS011;1535;51.098;6.414;2023-05-02T14:02:04;16.97;;;15.77;;
3050;SDS011;1535;51.098;6.414;2023-05-02T14:04:31;17.37;;;16.30;;
3050;SDS011;1535;51.098;6.414;2023-05-02T14:06:58;15.30;;;14.60;;
3050;SDS011;1535;51.098;6.414;2023-05-02T14:09:26;16.00;;;15.20;;
3050;SDS011;1535;51.098;6.414;2023-05-02T14:11:54;16.00;;;15.30;;
3050;SDS011;1535;51.098;6.414;2023-05-02T14:14:22;16.30;;;15.40;;
3050;SDS011;1535;51.098;6.414;2023-05-02T14:16:49;18.40;;;16.73;;
3050;SDS011;1535;51.098;6.414;2023-05-02T14:19:16;15.50;;;14.67;;
3050;SDS011;1535;51.098;6.414;2023-05-02T14:21:43;14.90;;;14.30;;
3050;SDS011;1535;51.098;6.414;2023-05-02T14:24:10;17.13;;;15.80;;
3050;SDS011;1535;51.098;6.414;2023-05-02T14:26:38;15.57;;;14.67;;
3050;SDS011;1535;51.098;6.414;2023-05-02T14:29:07;15.10;;;14.50;;
3050;SDS011;1535;51.098;6.414;2023-05-02T14:31:34;14.70;;;14.10;;
3050;SDS011;1535;51.098;6.414;2023-05-02T14:34:01;15.33;;;14.53;;
3050;SDS011;1535;51.098;6.414;2023-05-02T14:36:28;15.13;;;14.53;;
3050;SDS011;1535;51.098;6.414;2023-05-02T14:38:56;16.60;;;15.80;;
3050;SDS011;1535;51.098;6.414;2023-05-02T14:41:23;16.53;;;14.70;;
3050;SDS011;1535;51.098;6.414;2023-05-02T14:43:51;16.50;;;15.80;;
3050;SDS011;1535;51.098;6.414;2023-05-02T14:46:19;15.30;;;14.50;;
3050;SDS011;1535;51.098;6.414;2023-05-02T14:48:46;15.37;;;14.67;;
3050;SDS011;1535;51.098;6.414;2023-05-02T14:51:14;14.90;;;14.30;;
3050;SDS011;1535;51.098;6.414;2023-05-02T14:53:41;15.47;;;14.77;;
3050;SDS011;1535;51.098;6.414;2023-05-02T14:56:11;15.23;;;14.63;;
3050;SDS011;1535;51.098;6.414;2023-05-02T14:58:39;16.27;;;15.40;;
3050;SDS011;1535;51.098;6.414;2023-05-02T15:01:14;16.80;;;15.60;;
3050;SDS011;1535;51.098;6.414;2023-05-02T15:03:43;17.13;;;15.97;;
3050;SDS011;1535;51.098;6.414;2023-05-02T15:06:11;15.23;;;14.53;;
3050;SDS011;1535;51.098;6.414;2023-05-02T15:08:39;14.50;;;13.90;;
3050;SDS011;1535;51.098;6.414;2023-05-02T15:11:09;15.63;;;14.93;;
3050;SDS011;1535;51.098;6.414;2023-05-02T15:13:36;17.30;;;15.93;;
3050;SDS011;1535;51.098;6.414;2023-05-02T15:16:03;16.40;;;15.60;;